createdAt,value
2018-02-25T00:02:08.220Z,48.70
2018-02-25T00:04:36.354Z,48.80
2018-02-25T00:07:05.268Z,49.10
2018-02-25T00:09:33.437Z,49.10
2018-02-25T00:12:01.641Z,49.00
2018-02-25T00:14:29.779Z,49.20
2018-02-25T00:16:57.942Z,49.10
2018-02-25T00:19:26.123Z,50.30
2018-02-25T00:21:54.369Z,49.30
2018-02-25T00:24:22.534Z,49.20
2018-02-25T00:26:51.469Z,49.40
2018-02-25T00:29:19.654Z,49.40
2018-02-25T00:31:47.803Z,49.40
2018-02-25T00:34:16.688Z,49.70
2018-02-25T00:36:45.711Z,49.70
2018-02-25T00:39:13.908Z,49.60
2018-02-25T00:41:42.060Z,49.60
2018-02-25T00:44:10.310Z,49.80
2018-02-25T00:46:39.226Z,50.20
2018-02-25T00:49:07.399Z,50.00
2018-02-25T00:51:35.543Z,50.10
2018-02-25T00:54:03.703Z,50.00
2018-02-25T00:56:33.730Z,50.00
2018-02-25T00:59:02.016Z,50.40
2018-02-25T01:01:30.193Z,50.50
2018-02-25T01:03:58.347Z,50.50
2018-02-25T01:06:26.482Z,50.30
2018-02-25T01:08:54.688Z,50.50
2018-02-25T01:11:22.829Z,50.60
2018-02-25T01:13:51.857Z,51.00
2018-02-25T01:16:20.786Z,51.50
2018-02-25T01:18:48.968Z,51.00
2018-02-25T01:21:17.108Z,50.90
2018-02-25T01:23:46.029Z,51.00
2018-02-25T01:26:15.021Z,51.00
2018-02-25T01:28:43.777Z,51.00
2018-02-25T01:31:12.701Z,51.00
2018-02-25T01:33:41.227Z,51.00
2018-02-25T01:36:09.378Z,51.10
2018-02-25T01:38:37.539Z,51.10
2018-02-25T01:41:06.632Z,51.10
2018-02-25T01:43:34.781Z,51.00
2018-02-25T01:46:03.722Z,51.00
2018-02-25T01:48:31.885Z,51.00
2018-02-25T01:51:04.946Z,51.20
2018-02-25T01:53:33.101Z,51.10
2018-02-25T01:56:02.013Z,51.30
2018-02-25T01:58:31.033Z,51.00
2018-02-25T02:00:59.295Z,50.90
2018-02-25T02:03:27.449Z,50.80
2018-02-25T02:05:56.156Z,51.10
2018-02-25T02:08:24.416Z,51.00
2018-02-25T02:10:52.681Z,50.90
2018-02-25T02:13:20.853Z,51.00
2018-02-25T02:15:49.137Z,51.00
2018-02-25T02:18:17.307Z,51.00
2018-02-25T02:20:45.537Z,50.90
2018-02-25T02:23:14.025Z,50.70
2018-02-25T02:25:42.170Z,50.60
2018-02-25T02:28:10.323Z,50.60
2018-02-25T02:30:38.565Z,50.70
2018-02-25T02:33:06.846Z,50.60
2018-02-25T02:35:35.278Z,50.60
2018-02-25T02:38:03.410Z,50.40
2018-02-25T02:40:31.576Z,50.50
2018-02-25T02:42:59.919Z,50.40
2018-02-25T02:45:28.093Z,50.50
2018-02-25T02:47:56.345Z,50.70
2018-02-25T02:50:24.694Z,50.60
2018-02-25T02:52:53.004Z,50.80
2018-02-25T02:55:21.157Z,50.80
2018-02-25T02:57:49.457Z,50.90
2018-02-25T03:00:17.679Z,50.90
2018-02-25T03:02:46.082Z,50.70
2018-02-25T03:05:14.461Z,50.80
2018-02-25T03:07:42.608Z,51.00
2018-02-25T03:10:11.512Z,51.00
2018-02-25T03:12:39.708Z,51.00
2018-02-25T03:15:08.158Z,50.90
2018-02-25T03:17:37.106Z,50.60
2018-02-25T03:20:05.310Z,50.60
2018-02-25T03:22:34.221Z,50.70
2018-02-25T03:25:03.132Z,50.40
2018-02-25T03:27:31.296Z,50.40
2018-02-25T03:29:59.611Z,50.30
2018-02-25T03:32:27.758Z,50.30
2018-02-25T03:34:56.077Z,50.50
2018-02-25T03:37:24.245Z,50.50
2018-02-25T03:39:53.202Z,51.10
2018-02-25T03:42:21.777Z,50.60
2018-02-25T03:44:50.148Z,50.70
2018-02-25T03:47:18.311Z,50.90
2018-02-25T03:49:46.604Z,50.70
2018-02-25T03:52:14.887Z,50.10
2018-02-25T03:54:43.038Z,50.30
2018-02-25T03:57:12.193Z,50.50
2018-02-25T03:59:41.388Z,50.60
2018-02-25T04:02:09.596Z,50.60
2018-02-25T04:04:37.877Z,50.60
2018-02-25T04:07:07.029Z,50.40
2018-02-25T04:09:35.178Z,50.40
2018-02-25T04:12:03.530Z,50.40
2018-02-25T04:14:32.635Z,50.00
2018-02-25T04:17:00.773Z,50.00
2018-02-25T04:19:30.375Z,50.00
2018-02-25T04:21:58.668Z,50.10
2018-02-25T04:24:27.571Z,50.60
2018-02-25T04:26:56.688Z,50.40
2018-02-25T04:29:24.853Z,50.40
2018-02-25T04:31:53.574Z,50.10
2018-02-25T04:34:21.860Z,50.00
2018-02-25T04:36:50.104Z,49.80
2018-02-25T04:39:18.326Z,50.00
2018-02-25T04:41:46.500Z,50.00
2018-02-25T04:44:14.659Z,50.10
2018-02-25T04:46:43.651Z,49.70
2018-02-25T04:49:12.850Z,49.70
2018-02-25T04:51:41.345Z,49.80
2018-02-25T04:54:09.622Z,50.10
2018-02-25T04:56:37.871Z,50.10
2018-02-25T04:59:06.031Z,50.00
2018-02-25T05:01:34.187Z,50.00
2018-02-25T05:04:02.376Z,50.00
2018-02-25T05:06:30.716Z,50.00
2018-02-25T05:09:00.512Z,50.10
2018-02-25T05:11:28.718Z,50.00
2018-02-25T05:13:56.876Z,50.00
2018-02-25T05:16:25.784Z,50.50
2018-02-25T05:18:53.994Z,50.40
2018-02-25T05:21:22.420Z,50.40
2018-02-25T05:23:51.531Z,50.40
2018-02-25T05:26:19.696Z,50.30
2018-02-25T05:28:48.613Z,50.10
2018-02-25T05:31:16.755Z,50.00
2018-02-25T05:33:44.917Z,50.40
2018-02-25T05:36:13.087Z,50.30
2018-02-25T05:38:41.256Z,50.20
2018-02-25T05:41:09.553Z,50.50
2018-02-25T05:43:38.637Z,50.40
2018-02-25T05:46:06.822Z,50.40
2018-02-25T05:48:35.765Z,50.40
2018-02-25T05:51:03.915Z,50.40
2018-02-25T05:53:32.165Z,50.30
2018-02-25T05:56:01.079Z,50.20
2018-02-25T05:58:29.214Z,50.10
2018-02-25T06:00:57.369Z,50.70
2018-02-25T06:03:25.529Z,50.70
2018-02-25T06:05:53.767Z,50.40
2018-02-25T06:08:22.088Z,50.50
2018-02-25T06:10:50.256Z,50.60
2018-02-25T06:13:18.448Z,50.60
2018-02-25T06:15:46.748Z,50.80
2018-02-25T06:18:15.695Z,50.80
2018-02-25T06:20:43.823Z,50.70
2018-02-25T06:23:13.419Z,51.00
2018-02-25T06:25:42.341Z,50.10
2018-02-25T06:28:10.588Z,50.10
2018-02-25T06:30:39.559Z,50.00
2018-02-25T06:33:07.712Z,50.00
2018-02-25T06:35:35.844Z,50.10
2018-02-25T06:38:04.079Z,50.20
2018-02-25T06:40:32.435Z,50.20
2018-02-25T06:43:00.671Z,49.80
2018-02-25T06:45:29.595Z,49.20
2018-02-25T06:47:57.773Z,49.20
2018-02-25T06:50:26.044Z,49.20
2018-02-25T06:52:54.232Z,49.20
2018-02-25T06:55:22.546Z,49.20
2018-02-25T06:57:51.487Z,49.20
2018-02-25T07:00:19.657Z,49.10
2018-02-25T07:02:48.500Z,49.50
2018-02-25T07:05:17.413Z,49.40
2018-02-25T07:07:46.425Z,49.20
2018-02-25T07:10:14.598Z,49.20
2018-02-25T07:12:43.305Z,49.40
2018-02-25T07:15:11.601Z,48.80
2018-02-25T07:17:39.833Z,48.70
2018-02-25T07:20:07.968Z,49.20
2018-02-25T07:22:36.897Z,48.30
2018-02-25T07:25:05.059Z,48.30
2018-02-25T07:27:33.201Z,47.90
2018-02-25T07:30:01.369Z,48.00
2018-02-25T07:32:29.712Z,47.80
2018-02-25T07:34:57.860Z,47.90
2018-02-25T07:37:26.394Z,47.60
2018-02-25T07:39:54.565Z,47.60
2018-02-25T07:42:22.836Z,47.60
2018-02-25T07:44:50.970Z,47.80
2018-02-25T07:47:19.123Z,47.40
2018-02-25T07:49:48.761Z,47.10
2018-02-25T07:52:16.936Z,46.90
2018-02-25T07:54:45.145Z,46.50
2018-02-25T07:57:14.084Z,45.90
2018-02-25T07:59:42.236Z,45.90
2018-02-25T08:02:11.247Z,45.60
2018-02-25T08:04:39.522Z,45.50
2018-02-25T08:07:07.671Z,44.90
2018-02-25T08:09:36.599Z,44.90
2018-02-25T08:12:04.757Z,44.80
2018-02-25T08:14:32.994Z,44.50
2018-02-25T08:17:01.211Z,44.60
2018-02-25T08:19:29.392Z,44.30
2018-02-25T08:21:57.558Z,44.30
2018-02-25T08:24:26.041Z,44.30
2018-02-25T08:26:54.289Z,44.20
2018-02-25T08:29:23.185Z,43.90
2018-02-25T08:31:51.391Z,43.80
2018-02-25T08:34:19.525Z,43.50
2018-02-25T08:36:47.681Z,43.90
2018-02-25T08:39:15.822Z,43.00
2018-02-25T08:41:43.980Z,42.50
2018-02-25T08:44:12.449Z,42.10
2018-02-25T08:46:40.628Z,41.40
2018-02-25T08:49:08.983Z,41.10
2018-02-25T08:51:37.892Z,40.60
2018-02-25T08:54:06.045Z,40.60
2018-02-25T08:56:35.546Z,40.60
2018-02-25T08:59:04.474Z,40.10
2018-02-25T09:01:32.769Z,40.60
2018-02-25T09:04:00.920Z,39.40
2018-02-25T09:06:29.151Z,40.00
2018-02-25T09:08:57.374Z,39.60
2018-02-25T09:11:25.550Z,39.30
2018-02-25T09:13:53.900Z,39.50
2018-02-25T09:16:22.836Z,38.40
2018-02-25T09:18:51.141Z,38.40
2018-02-25T09:21:19.453Z,38.30
2018-02-25T09:23:47.756Z,38.00
2018-02-25T09:26:15.905Z,37.60
2018-02-25T09:28:44.184Z,37.10
2018-02-25T09:31:12.354Z,37.30
2018-02-25T09:33:40.493Z,36.40
2018-02-25T09:36:08.653Z,36.50
2018-02-25T09:38:36.863Z,35.80
2018-02-25T09:41:05.020Z,36.40
2018-02-25T09:43:33.229Z,36.30
2018-02-25T09:46:01.566Z,36.40
2018-02-25T09:48:29.768Z,35.80
2018-02-25T09:50:57.979Z,35.50
2018-02-25T09:53:26.147Z,34.70
2018-02-25T09:55:54.327Z,34.10
2018-02-25T09:58:22.864Z,32.90
2018-02-25T10:00:52.102Z,33.10
2018-02-25T10:03:20.274Z,33.10
2018-02-25T10:05:48.419Z,33.10
2018-02-25T10:08:16.629Z,33.60
2018-02-25T10:10:45.116Z,32.80
2018-02-25T10:13:13.347Z,32.30
2018-02-25T10:15:42.352Z,32.20
2018-02-25T10:18:10.523Z,32.20
2018-02-25T10:20:39.216Z,31.60
2018-02-25T10:23:07.783Z,30.70
2018-02-25T10:25:35.965Z,31.30
2018-02-25T10:28:04.874Z,32.00
2018-02-25T10:30:33.079Z,32.00
2018-02-25T10:33:01.228Z,31.60
2018-02-25T10:35:29.387Z,31.10
2018-02-25T10:37:57.713Z,30.40
2018-02-25T10:40:25.920Z,29.60
2018-02-25T10:42:54.839Z,30.00
2018-02-25T10:45:23.203Z,30.00
2018-02-25T10:47:51.437Z,29.80
2018-02-25T10:50:19.862Z,29.80
2018-02-25T10:52:48.711Z,29.20
2018-02-25T10:55:17.008Z,28.50
2018-02-25T10:57:45.913Z,28.90
2018-02-25T11:00:14.906Z,28.90
2018-02-25T11:02:43.289Z,28.70
2018-02-25T11:05:11.708Z,28.60
2018-02-25T11:07:40.070Z,28.10
2018-02-25T11:10:08.337Z,28.40
2018-02-25T11:12:36.520Z,28.70
2018-02-25T11:15:04.718Z,27.30
2018-02-25T11:17:32.933Z,27.40
2018-02-25T11:20:01.915Z,27.80
2018-02-25T11:22:30.253Z,27.80
2018-02-25T11:24:58.427Z,27.60
2018-02-25T11:27:26.611Z,27.70
2018-02-25T11:29:54.761Z,28.00
2018-02-25T11:32:22.893Z,27.90
2018-02-25T11:34:51.533Z,27.80
2018-02-25T11:37:20.690Z,27.20
2018-02-25T11:39:48.842Z,26.80
2018-02-25T11:42:17.800Z,27.00
2018-02-25T11:44:46.181Z,27.00
2018-02-25T11:47:14.333Z,27.20
2018-02-25T11:49:42.813Z,26.70
2018-02-25T11:52:10.966Z,26.70
2018-02-25T11:54:39.232Z,26.80
2018-02-25T11:57:07.397Z,26.70
2018-02-25T11:59:36.429Z,26.30
2018-02-25T12:02:05.761Z,26.30
2018-02-25T12:04:34.076Z,26.50
2018-02-25T12:07:02.424Z,26.40
2018-02-25T12:09:33.560Z,26.00
2018-02-25T12:12:02.747Z,26.40
2018-02-25T12:14:30.896Z,26.40
2018-02-25T12:16:59.051Z,26.60
2018-02-25T12:19:27.198Z,26.00
2018-02-25T12:21:55.340Z,26.50
2018-02-25T12:24:23.468Z,26.90
2018-02-25T12:26:52.351Z,27.00
2018-02-25T12:29:20.512Z,27.30
2018-02-25T12:31:49.428Z,26.70
2018-02-25T12:34:17.561Z,26.70
2018-02-25T12:36:46.413Z,26.80
2018-02-25T12:39:14.580Z,27.30
2018-02-25T12:41:43.638Z,26.20
2018-02-25T12:44:12.609Z,26.50
2018-02-25T12:46:40.772Z,26.50
2018-02-25T12:49:08.958Z,26.40
2018-02-25T12:51:37.565Z,26.20
2018-02-25T12:54:06.570Z,26.80
2018-02-25T12:56:34.795Z,26.70
2018-02-25T12:59:03.103Z,26.60
2018-02-25T13:01:32.252Z,25.50
2018-02-25T13:04:00.485Z,25.40
2018-02-25T13:06:29.407Z,25.60
2018-02-25T13:08:57.540Z,25.60
2018-02-25T13:11:25.790Z,26.10
2018-02-25T13:13:53.999Z,25.60
2018-02-25T13:16:22.284Z,26.10
2018-02-25T13:18:50.548Z,25.90
2018-02-25T13:21:19.482Z,26.00
2018-02-25T13:23:48.198Z,26.00
2018-02-25T13:26:16.353Z,26.60
2018-02-25T13:28:44.512Z,26.70
2018-02-25T13:31:13.109Z,27.00
2018-02-25T13:33:41.427Z,27.30
2018-02-25T13:36:10.333Z,26.70
2018-02-25T13:38:38.482Z,26.60
2018-02-25T13:41:07.504Z,27.00
2018-02-25T13:43:35.654Z,27.00
2018-02-25T13:46:03.936Z,26.20
2018-02-25T13:48:32.181Z,25.80
2018-02-25T13:51:00.366Z,26.10
2018-02-25T13:53:29.305Z,26.50
2018-02-25T13:55:58.162Z,26.50
2018-02-25T13:58:26.335Z,25.70
2018-02-25T14:00:55.258Z,26.20
2018-02-25T14:03:23.649Z,26.20
2018-02-25T14:05:51.940Z,26.20
2018-02-25T14:08:20.186Z,26.30
2018-02-25T14:10:48.333Z,26.70
2018-02-25T14:13:16.537Z,27.30
2018-02-25T14:15:45.516Z,25.60
2018-02-25T14:18:14.262Z,25.60
2018-02-25T14:20:42.403Z,25.80
2018-02-25T14:23:10.722Z,26.00
2018-02-25T14:25:39.702Z,25.60
2018-02-25T14:28:07.983Z,25.60
2018-02-25T14:30:36.283Z,26.40
2018-02-25T14:33:05.205Z,26.20
2018-02-25T14:35:33.445Z,26.20
2018-02-25T14:38:02.384Z,26.10
2018-02-25T14:40:31.183Z,25.60
2018-02-25T14:42:59.351Z,25.20
2018-02-25T14:45:27.685Z,26.00
2018-02-25T14:47:56.603Z,25.50
2018-02-25T14:50:24.750Z,25.50
2018-02-25T14:52:53.663Z,26.20
2018-02-25T14:55:21.899Z,26.20
2018-02-25T15:00:26.051Z,27.20
2018-02-25T15:02:55.116Z,26.70
2018-02-25T15:05:23.453Z,26.60
2018-02-25T15:07:51.727Z,26.00
2018-02-25T15:10:19.911Z,26.60
2018-02-25T15:12:48.888Z,26.40
2018-02-25T15:15:18.051Z,26.30
2018-02-25T15:17:47.021Z,25.90
2018-02-25T15:20:15.166Z,25.90
2018-02-25T15:22:43.367Z,26.00
2018-02-25T15:25:11.645Z,26.70
2018-02-25T15:27:39.796Z,26.70
2018-02-25T15:30:07.952Z,26.70
2018-02-25T15:32:36.245Z,27.00
2018-02-25T15:35:04.524Z,27.50
2018-02-25T15:37:32.705Z,27.30
2018-02-25T15:40:01.840Z,28.00
2018-02-25T15:42:30.804Z,27.90
2018-02-25T15:44:59.705Z,27.90
2018-02-25T15:47:28.814Z,27.80
2018-02-25T15:49:57.844Z,27.40
2018-02-25T15:52:26.116Z,27.30
2018-02-25T15:54:54.245Z,27.50
2018-02-25T15:57:22.640Z,28.10
2018-02-25T16:02:26.292Z,28.00
2018-02-25T16:04:54.431Z,27.50
2018-02-25T16:07:23.524Z,27.40
2018-02-25T16:09:52.450Z,28.10
2018-02-25T16:12:20.835Z,27.80
2018-02-25T16:14:49.282Z,27.80
2018-02-25T16:17:18.372Z,28.10
2018-02-25T16:19:46.567Z,28.10
2018-02-25T16:22:14.801Z,28.30
2018-02-25T16:24:43.075Z,28.50
2018-02-25T16:27:12.262Z,28.00
2018-02-25T16:29:40.399Z,28.00
2018-02-25T16:32:08.658Z,28.40
2018-02-25T16:34:36.964Z,28.20
2018-02-25T16:37:05.194Z,28.40
2018-02-25T16:39:33.571Z,28.40
2018-02-25T16:42:01.711Z,28.80
2018-02-25T16:44:29.861Z,28.60
2018-02-25T16:46:58.260Z,28.40
2018-02-25T16:49:26.410Z,28.30
2018-02-25T16:51:54.548Z,28.60
2018-02-25T16:54:23.598Z,29.10
2018-02-25T16:56:51.910Z,29.00
2018-02-25T16:59:20.797Z,29.30
2018-02-25T17:01:49.707Z,29.40
2018-02-25T17:04:17.854Z,29.40
2018-02-25T17:06:46.063Z,29.20
2018-02-25T17:09:14.365Z,29.80
2018-02-25T17:11:43.323Z,29.60
2018-02-25T17:14:11.477Z,29.30
2018-02-25T17:16:39.666Z,29.70
2018-02-25T17:19:08.872Z,29.90
2018-02-25T17:21:37.038Z,29.90
2018-02-25T17:24:05.337Z,30.00
2018-02-25T17:26:33.502Z,30.30
2018-02-25T17:29:02.422Z,30.10
2018-02-25T17:31:30.583Z,30.60
2018-02-25T17:33:59.003Z,30.40
2018-02-25T17:36:27.941Z,31.20
2018-02-25T17:38:56.277Z,31.20
2018-02-25T17:41:24.578Z,31.40
2018-02-25T17:43:53.572Z,31.70
2018-02-25T17:46:22.590Z,32.30
2018-02-25T17:48:51.350Z,32.30
2018-02-25T17:51:20.548Z,32.30
2018-02-25T17:53:49.485Z,32.30
2018-02-25T17:56:17.641Z,32.30
2018-02-25T17:58:45.804Z,32.80
2018-02-25T18:01:13.990Z,33.10
2018-02-25T18:03:43.889Z,33.60
2018-02-25T18:06:12.031Z,33.60
2018-02-25T18:08:40.183Z,34.00
2018-02-25T18:11:08.505Z,34.40
2018-02-25T18:13:37.606Z,35.10
2018-02-25T18:16:05.778Z,35.10
2018-02-25T18:18:33.959Z,35.10
2018-02-25T18:21:02.972Z,35.20
2018-02-25T18:23:31.214Z,35.20
2018-02-25T18:26:00.137Z,35.80
2018-02-25T18:28:28.309Z,35.70
2018-02-25T18:30:56.469Z,35.70
2018-02-25T18:33:24.634Z,35.70
2018-02-25T18:35:53.724Z,36.00
2018-02-25T18:38:22.034Z,36.30
2018-02-25T18:40:50.237Z,36.20
2018-02-25T18:43:18.563Z,36.20
2018-02-25T18:45:46.844Z,36.70
2018-02-25T18:48:15.059Z,36.60
2018-02-25T18:50:43.288Z,36.50
2018-02-25T18:53:11.516Z,36.70
2018-02-25T18:55:39.666Z,36.80
2018-02-25T18:58:08.016Z,37.20
2018-02-25T19:00:36.228Z,37.70
2018-02-25T19:03:04.547Z,38.20
2018-02-25T19:05:32.801Z,38.30
2018-02-25T19:08:00.960Z,38.60
2018-02-25T19:10:29.276Z,38.80
2018-02-25T19:12:57.636Z,39.10
2018-02-25T19:15:25.811Z,39.30
2018-02-25T19:17:54.116Z,39.50
2018-02-25T19:20:22.454Z,39.60
2018-02-25T19:22:50.838Z,39.80
2018-02-25T19:25:19.011Z,40.00
2018-02-25T19:27:47.216Z,40.50
2018-02-25T19:30:15.362Z,40.40
2018-02-25T19:32:43.610Z,40.30
2018-02-25T19:35:11.770Z,40.50
2018-02-25T19:37:45.511Z,40.70
2018-02-25T19:40:13.669Z,41.00
2018-02-25T19:42:41.992Z,41.00
2018-02-25T19:45:10.170Z,41.10
2018-02-25T19:47:38.306Z,41.70
2018-02-25T19:50:06.466Z,41.50
2018-02-25T19:52:35.615Z,41.70
2018-02-25T19:55:03.951Z,41.70
2018-02-25T19:57:32.104Z,41.90
2018-02-25T20:00:01.262Z,41.80
2018-02-25T20:02:30.309Z,41.80
2018-02-25T20:04:58.697Z,41.80
2018-02-25T20:07:26.861Z,41.90
2018-02-25T20:09:55.004Z,42.10
2018-02-25T20:12:23.507Z,42.30
2018-02-25T20:14:51.679Z,42.30
2018-02-25T20:17:19.852Z,42.00
2018-02-25T20:19:48.076Z,42.10
2018-02-25T20:22:17.128Z,42.50
2018-02-25T20:24:45.339Z,42.50
2018-02-25T20:27:13.655Z,42.30
2018-02-25T20:29:42.835Z,42.30
2018-02-25T20:32:11.297Z,42.20
2018-02-25T20:34:40.994Z,41.70
2018-02-25T20:37:10.068Z,42.20
2018-02-25T20:39:38.930Z,41.60
2018-02-25T20:42:07.282Z,41.80
2018-02-25T20:44:35.450Z,41.40
2018-02-25T20:47:03.736Z,41.40
2018-02-25T20:49:31.952Z,41.40
2018-02-25T20:52:00.106Z,41.30
2018-02-25T20:54:28.318Z,41.60
2018-02-25T20:56:56.635Z,41.70
2018-02-25T20:59:24.799Z,41.60
2018-02-25T21:01:52.987Z,41.70
2018-02-25T21:04:21.344Z,41.80
2018-02-25T21:06:50.309Z,42.00
2018-02-25T21:09:18.435Z,42.00
2018-02-25T21:11:46.583Z,42.30
2018-02-25T21:14:16.595Z,42.80
2018-02-25T21:16:45.512Z,43.20
2018-02-25T21:19:13.714Z,43.10
2018-02-25T21:21:41.908Z,43.40
2018-02-25T21:24:10.244Z,43.50
2018-02-25T21:26:38.416Z,43.30
2018-02-25T21:29:07.351Z,43.60
2018-02-25T21:31:35.564Z,44.00
2018-02-25T21:34:04.538Z,44.40
2018-02-25T21:36:33.581Z,44.50
2018-02-25T21:39:01.940Z,44.40
2018-02-25T21:41:30.251Z,44.90
2018-02-25T21:43:58.424Z,45.00
2018-02-25T21:46:27.705Z,45.30
2018-02-25T21:48:55.910Z,45.80
2018-02-25T21:51:25.012Z,46.10
2018-02-25T21:53:54.814Z,46.20
2018-02-25T21:56:28.683Z,46.20
2018-02-25T21:59:02.593Z,46.80
2018-02-25T22:01:36.615Z,47.20
2018-02-25T22:04:04.774Z,47.50
2018-02-25T22:06:32.936Z,47.80
2018-02-25T22:09:01.106Z,48.10
2018-02-25T22:11:29.282Z,48.30
2018-02-25T22:13:57.586Z,48.50
2018-02-25T22:16:25.838Z,48.50
2018-02-25T22:18:54.011Z,48.80
2018-02-25T22:21:22.337Z,48.80
2018-02-25T22:23:50.633Z,48.70
2018-02-25T22:26:19.951Z,48.60
2018-02-25T22:28:49.151Z,48.90
2018-02-25T22:31:19.162Z,49.00
2018-02-25T22:33:47.546Z,48.90
2018-02-25T22:36:16.443Z,49.50
2018-02-25T22:38:45.391Z,49.50
2018-02-25T22:41:13.582Z,49.50
2018-02-25T22:43:41.898Z,49.40
2018-02-25T22:46:10.108Z,49.60
2018-02-25T22:48:38.447Z,49.80
2018-02-25T22:51:07.069Z,50.10
2018-02-25T22:53:37.026Z,50.00
2018-02-25T22:56:06.029Z,50.00
2018-02-25T22:58:35.031Z,50.00
2018-02-25T23:01:04.437Z,50.00
2018-02-25T23:03:32.574Z,49.90
2018-02-25T23:06:00.817Z,50.00
2018-02-25T23:08:29.045Z,50.60
2018-02-25T23:10:57.988Z,49.90
2018-02-25T23:13:26.287Z,49.90
2018-02-25T23:15:54.636Z,49.90
2018-02-25T23:18:23.170Z,50.30
2018-02-25T23:20:52.194Z,50.60
2018-02-25T23:23:21.972Z,50.50
2018-02-25T23:25:50.895Z,50.60
2018-02-25T23:28:19.202Z,50.50
2018-02-25T23:30:47.355Z,50.60
2018-02-25T23:33:15.517Z,50.70
2018-02-25T23:35:43.702Z,51.00
2018-02-25T23:38:11.874Z,51.00
2018-02-25T23:40:40.159Z,51.00
2018-02-25T23:43:08.590Z,51.10
2018-02-25T23:45:36.802Z,51.10
2018-02-25T23:48:05.171Z,51.30
2018-02-25T23:50:33.382Z,51.50
2018-02-25T23:53:01.739Z,51.50
2018-02-25T23:55:29.890Z,51.40
2018-02-25T23:57:58.052Z,51.30
